sensor_id;sensor_type;location;lat;lon;timestamp;P1;P2;P0
57049;PMS7003;42935;50.966;16.992;2022-12-11T00:01:30;85;58;35
57049;PMS7003;42935;50.966;16.992;2022-12-11T00:04:48;86;58;34
57049;PMS7003;42935;50.966;16.992;2022-12-11T00:07:59;84;59;35
57049;PMS7003;42935;50.966;16.992;2022-12-11T00:11:17;81;59;35
57049;PMS7003;42935;50.966;16.992;2022-12-11T00:14:34;80;56;33
57049;PMS7003;42935;50.966;16.992;2022-12-11T00:17:43;84;59;33
57049;PMS7003;42935;50.966;16.992;2022-12-11T00:21:02;85;59;34
57049;PMS7003;42935;50.966;16.992;2022-12-11T00:24:22;85;59;35
57049;PMS7003;42935;50.966;16.992;2022-12-11T00:27:40;78;57;34
57049;PMS7003;42935;50.966;16.992;2022-12-11T00:30:54;83;61;36
57049;PMS7003;42935;50.966;16.992;2022-12-11T00:34:08;83;59;36
57049;PMS7003;42935;50.966;16.992;2022-12-11T00:37:26;88;62;35
57049;PMS7003;42935;50.966;16.992;2022-12-11T00:40:44;91;61;35
57049;PMS7003;42935;50.966;16.992;2022-12-11T00:43:59;91;61;36
57049;PMS7003;42935;50.966;16.992;2022-12-11T00:47:09;90;63;38
57049;PMS7003;42935;50.966;16.992;2022-12-11T00:50:27;84;60;36
57049;PMS7003;42935;50.966;16.992;2022-12-11T00:53:38;87;60;34
57049;PMS7003;42935;50.966;16.992;2022-12-11T00:56:55;84;59;34
57049;PMS7003;42935;50.966;16.992;2022-12-11T01:00:09;86;60;35
57049;PMS7003;42935;50.966;16.992;2022-12-11T01:03:20;89;61;36
57049;PMS7003;42935;50.966;16.992;2022-12-11T01:06:38;86;60;36
57049;PMS7003;42935;50.966;16.992;2022-12-11T01:09:53;86;60;35
57049;PMS7003;42935;50.966;16.992;2022-12-11T01:13:18;92;62;36
57049;PMS7003;42935;50.966;16.992;2022-12-11T01:16:36;88;60;36
57049;PMS7003;42935;50.966;16.992;2022-12-11T01:19:53;86;61;34
57049;PMS7003;42935;50.966;16.992;2022-12-11T01:23:07;88;61;35
57049;PMS7003;42935;50.966;16.992;2022-12-11T01:26:28;84;60;35
57049;PMS7003;42935;50.966;16.992;2022-12-11T01:29:39;90;62;36
57049;PMS7003;42935;50.966;16.992;2022-12-11T01:32:52;85;59;36
57049;PMS7003;42935;50.966;16.992;2022-12-11T01:39:30;85;61;37
57049;PMS7003;42935;50.966;16.992;2022-12-11T01:42:42;89;62;37
57049;PMS7003;42935;50.966;16.992;2022-12-11T01:46:00;88;61;35
57049;PMS7003;42935;50.966;16.992;2022-12-11T01:49:19;92;63;37
57049;PMS7003;42935;50.966;16.992;2022-12-11T01:52:37;88;60;36
57049;PMS7003;42935;50.966;16.992;2022-12-11T01:55:52;88;60;35
57049;PMS7003;42935;50.966;16.992;2022-12-11T01:59:11;90;64;37
57049;PMS7003;42935;50.966;16.992;2022-12-11T02:02:35;87;63;36
57049;PMS7003;42935;50.966;16.992;2022-12-11T02:05:48;86;62;36
57049;PMS7003;42935;50.966;16.992;2022-12-11T02:09:08;92;62;36
57049;PMS7003;42935;50.966;16.992;2022-12-11T02:29:48;83;59;37
57049;PMS7003;42935;50.966;16.992;2022-12-11T02:33:05;80;59;35
57049;PMS7003;42935;50.966;16.992;2022-12-11T02:36:17;87;61;37
57049;PMS7003;42935;50.966;16.992;2022-12-11T02:39:34;86;62;36
57049;PMS7003;42935;50.966;16.992;2022-12-11T02:42:50;85;60;35
57049;PMS7003;42935;50.966;16.992;2022-12-11T02:46:08;77;55;33
57049;PMS7003;42935;50.966;16.992;2022-12-11T02:49:22;85;59;35
57049;PMS7003;42935;50.966;16.992;2022-12-11T02:52:38;86;59;34
57049;PMS7003;42935;50.966;16.992;2022-12-11T02:59:25;86;62;37
57049;PMS7003;42935;50.966;16.992;2022-12-11T03:02:46;82;58;34
57049;PMS7003;42935;50.966;16.992;2022-12-11T03:05:58;81;58;34
57049;PMS7003;42935;50.966;16.992;2022-12-11T03:09:13;84;58;33
57049;PMS7003;42935;50.966;16.992;2022-12-11T03:12:28;84;60;35
57049;PMS7003;42935;50.966;16.992;2022-12-11T03:26:13;76;54;31
57049;PMS7003;42935;50.966;16.992;2022-12-11T03:29:34;83;61;36
57049;PMS7003;42935;50.966;16.992;2022-12-11T03:32:52;85;59;35
57049;PMS7003;42935;50.966;16.992;2022-12-11T03:36:19;87;61;35
57049;PMS7003;42935;50.966;16.992;2022-12-11T03:39:36;85;58;35
57049;PMS7003;42935;50.966;16.992;2022-12-11T03:42:55;89;59;35
57049;PMS7003;42935;50.966;16.992;2022-12-11T03:46:09;86;59;36
57049;PMS7003;42935;50.966;16.992;2022-12-11T03:49:28;85;59;35
57049;PMS7003;42935;50.966;16.992;2022-12-11T03:52:50;81;56;34
57049;PMS7003;42935;50.966;16.992;2022-12-11T03:56:31;85;60;36
57049;PMS7003;42935;50.966;16.992;2022-12-11T03:59:45;87;60;35
57049;PMS7003;42935;50.966;16.992;2022-12-11T04:02:59;86;61;37
57049;PMS7003;42935;50.966;16.992;2022-12-11T04:06:28;85;60;36
57049;PMS7003;42935;50.966;16.992;2022-12-11T04:09:47;80;58;34
57049;PMS7003;42935;50.966;16.992;2022-12-11T04:13:05;80;57;32
57049;PMS7003;42935;50.966;16.992;2022-12-11T04:16:17;81;58;34
57049;PMS7003;42935;50.966;16.992;2022-12-11T04:19:31;86;56;33
57049;PMS7003;42935;50.966;16.992;2022-12-11T04:23:02;80;57;35
57049;PMS7003;42935;50.966;16.992;2022-12-11T04:26:30;82;57;34
57049;PMS7003;42935;50.966;16.992;2022-12-11T04:29:40;84;58;35
57049;PMS7003;42935;50.966;16.992;2022-12-11T04:32:49;78;55;33
57049;PMS7003;42935;50.966;16.992;2022-12-11T04:36:07;74;51;31
57049;PMS7003;42935;50.966;16.992;2022-12-11T04:39:22;75;52;32
57049;PMS7003;42935;50.966;16.992;2022-12-11T04:42:37;81;56;34
57049;PMS7003;42935;50.966;16.992;2022-12-11T04:46:00;74;54;32
57049;PMS7003;42935;50.966;16.992;2022-12-11T04:49:11;80;54;30
57049;PMS7003;42935;50.966;16.992;2022-12-11T04:52:22;83;56;34
57049;PMS7003;42935;50.966;16.992;2022-12-11T04:55:33;81;57;33
57049;PMS7003;42935;50.966;16.992;2022-12-11T04:58:46;80;55;33
57049;PMS7003;42935;50.966;16.992;2022-12-11T05:02:00;80;55;32
57049;PMS7003;42935;50.966;16.992;2022-12-11T05:05:13;78;55;33
57049;PMS7003;42935;50.966;16.992;2022-12-11T05:08:24;83;57;33
57049;PMS7003;42935;50.966;16.992;2022-12-11T05:11:44;79;58;33
57049;PMS7003;42935;50.966;16.992;2022-12-11T05:14:58;77;57;34
57049;PMS7003;42935;50.966;16.992;2022-12-11T05:18:10;75;52;30
57049;PMS7003;42935;50.966;16.992;2022-12-11T05:21:27;79;57;33
57049;PMS7003;42935;50.966;16.992;2022-12-11T05:24:34;70;53;32
57049;PMS7003;42935;50.966;16.992;2022-12-11T05:27:45;76;52;31
57049;PMS7003;42935;50.966;16.992;2022-12-11T05:34:11;81;55;33
57049;PMS7003;42935;50.966;16.992;2022-12-11T05:37:25;73;52;31
57049;PMS7003;42935;50.966;16.992;2022-12-11T05:40:43;78;55;33
57049;PMS7003;42935;50.966;16.992;2022-12-11T05:43:57;71;50;28
57049;PMS7003;42935;50.966;16.992;2022-12-11T05:47:16;75;54;32
57049;PMS7003;42935;50.966;16.992;2022-12-11T05:50:32;77;54;33
57049;PMS7003;42935;50.966;16.992;2022-12-11T05:53:52;76;52;32
57049;PMS7003;42935;50.966;16.992;2022-12-11T05:57:08;73;51;31
57049;PMS7003;42935;50.966;16.992;2022-12-11T06:00:26;69;48;29
57049;PMS7003;42935;50.966;16.992;2022-12-11T06:03:44;75;53;31
57049;PMS7003;42935;50.966;16.992;2022-12-11T06:07:01;75;52;32
57049;PMS7003;42935;50.966;16.992;2022-12-11T06:10:23;75;54;32
57049;PMS7003;42935;50.966;16.992;2022-12-11T06:13:39;78;55;34
57049;PMS7003;42935;50.966;16.992;2022-12-11T06:16:51;74;52;32
57049;PMS7003;42935;50.966;16.992;2022-12-11T06:20:05;80;54;32
57049;PMS7003;42935;50.966;16.992;2022-12-11T06:23:23;65;47;27
57049;PMS7003;42935;50.966;16.992;2022-12-11T06:26:37;72;50;29
57049;PMS7003;42935;50.966;16.992;2022-12-11T06:29:55;76;53;32
57049;PMS7003;42935;50.966;16.992;2022-12-11T06:33:08;82;56;33
57049;PMS7003;42935;50.966;16.992;2022-12-11T06:36:23;78;56;33
57049;PMS7003;42935;50.966;16.992;2022-12-11T06:39:37;81;56;33
57049;PMS7003;42935;50.966;16.992;2022-12-11T06:42:47;67;49;30
57049;PMS7003;42935;50.966;16.992;2022-12-11T06:46:20;73;51;30
57049;PMS7003;42935;50.966;16.992;2022-12-11T06:49:27;75;48;29
57049;PMS7003;42935;50.966;16.992;2022-12-11T06:52:38;75;53;33
57049;PMS7003;42935;50.966;16.992;2022-12-11T06:55:48;75;52;32
57049;PMS7003;42935;50.966;16.992;2022-12-11T06:58:59;70;49;31
57049;PMS7003;42935;50.966;16.992;2022-12-11T07:02:15;69;50;28
57049;PMS7003;42935;50.966;16.992;2022-12-11T07:05:32;70;50;28
57049;PMS7003;42935;50.966;16.992;2022-12-11T07:08:38;0;0;0
57049;PMS7003;42935;50.966;16.992;2022-12-11T07:11:42;0;0;0
57049;PMS7003;42935;50.966;16.992;2022-12-11T07:14:45;6;6;3
57049;PMS7003;42935;50.966;16.992;2022-12-11T07:17:49;2;2;2
57049;PMS7003;42935;50.966;16.992;2022-12-11T07:20:56;16;14;14
57049;PMS7003;42935;50.966;16.992;2022-12-11T07:24:03;1;1;1
57049;PMS7003;42935;50.966;16.992;2022-12-11T07:27:09;0;0;0
57049;PMS7003;42935;50.966;16.992;2022-12-11T07:30:14;0;0;0
57049;PMS7003;42935;50.966;16.992;2022-12-11T07:33:52;0;0;0
57049;PMS7003;42935;50.966;16.992;2022-12-11T07:36:59;3;3;2
57049;PMS7003;42935;50.966;16.992;2022-12-11T07:40:04;0;0;0
57049;PMS7003;42935;50.966;16.992;2022-12-11T07:43:08;1;0;0
57049;PMS7003;42935;50.966;16.992;2022-12-11T07:46:17;3;1;1
57049;PMS7003;42935;50.966;16.992;2022-12-11T07:49:22;3;2;0
57049;PMS7003;42935;50.966;16.992;2022-12-11T07:52:27;0;0;0
57049;PMS7003;42935;50.966;16.992;2022-12-11T07:55:38;8;4;3
57049;PMS7003;42935;50.966;16.992;2022-12-11T07:58:44;0;0;0
57049;PMS7003;42935;50.966;16.992;2022-12-11T08:01:51;9;8;2
57049;PMS7003;42935;50.966;16.992;2022-12-11T08:05:26;3;2;2
57049;PMS7003;42935;50.966;16.992;2022-12-11T08:08:36;11;9;4
57049;PMS7003;42935;50.966;16.992;2022-12-11T08:11:44;0;0;0
57049;PMS7003;42935;50.966;16.992;2022-12-11T08:14:55;5;2;2
57049;PMS7003;42935;50.966;16.992;2022-12-11T08:18:04;4;2;1
57049;PMS7003;42935;50.966;16.992;2022-12-11T08:21:14;6;3;2
57049;PMS7003;42935;50.966;16.992;2022-12-11T08:24:28;4;3;3
57049;PMS7003;42935;50.966;16.992;2022-12-11T08:27:40;5;4;1
57049;PMS7003;42935;50.966;16.992;2022-12-11T08:30:43;5;2;1
57049;PMS7003;42935;50.966;16.992;2022-12-11T08:33:53;4;2;2
57049;PMS7003;42935;50.966;16.992;2022-12-11T08:37:00;22;22;20
57049;PMS7003;42935;50.966;16.992;2022-12-11T08:40:06;0;0;0
57049;PMS7003;42935;50.966;16.992;2022-12-11T08:43:14;3;0;0
57049;PMS7003;42935;50.966;16.992;2022-12-11T08:46:21;2;2;0
57049;PMS7003;42935;50.966;16.992;2022-12-11T08:49:33;5;3;1
57049;PMS7003;42935;50.966;16.992;2022-12-11T08:52:42;15;8;5
57049;PMS7003;42935;50.966;16.992;2022-12-11T08:55:48;2;2;1
57049;PMS7003;42935;50.966;16.992;2022-12-11T08:58:57;3;2;1
57049;PMS7003;42935;50.966;16.992;2022-12-11T09:02:02;1;1;0
57049;PMS7003;42935;50.966;16.992;2022-12-11T09:05:12;6;4;3
57049;PMS7003;42935;50.966;16.992;2022-12-11T09:08:26;13;9;6
57049;PMS7003;42935;50.966;16.992;2022-12-11T09:11:34;3;2;1
57049;PMS7003;42935;50.966;16.992;2022-12-11T09:14:47;10;6;4
57049;PMS7003;42935;50.966;16.992;2022-12-11T09:17:51;3;3;2
57049;PMS7003;42935;50.966;16.992;2022-12-11T09:21:00;3;0;0
57049;PMS7003;42935;50.966;16.992;2022-12-11T09:24:08;2;0;0
57049;PMS7003;42935;50.966;16.992;2022-12-11T09:27:15;4;1;1
57049;PMS7003;42935;50.966;16.992;2022-12-11T09:30:27;15;10;6
57049;PMS7003;42935;50.966;16.992;2022-12-11T09:33:33;0;0;0
57049;PMS7003;42935;50.966;16.992;2022-12-11T09:36:39;6;4;3
57049;PMS7003;42935;50.966;16.992;2022-12-11T09:39:50;11;8;5
57049;PMS7003;42935;50.966;16.992;2022-12-11T09:43:05;3;3;3
57049;PMS7003;42935;50.966;16.992;2022-12-11T09:46:13;12;10;7
57049;PMS7003;42935;50.966;16.992;2022-12-11T09:52:42;10;5;4
57049;PMS7003;42935;50.966;16.992;2022-12-11T09:56:26;8;5;3
57049;PMS7003;42935;50.966;16.992;2022-12-11T10:09:42;6;2;1
57049;PMS7003;42935;50.966;16.992;2022-12-11T10:19:27;3;1;0
57049;PMS7003;42935;50.966;16.992;2022-12-11T10:22:36;6;4;3
57049;PMS7003;42935;50.966;16.992;2022-12-11T10:29:05;0;0;0
57049;PMS7003;42935;50.966;16.992;2022-12-11T10:32:21;4;2;2
57049;PMS7003;42935;50.966;16.992;2022-12-11T10:35:30;1;1;0
57049;PMS7003;42935;50.966;16.992;2022-12-11T10:38:43;2;2;1
57049;PMS7003;42935;50.966;16.992;2022-12-11T10:41:52;0;0;0
57049;PMS7003;42935;50.966;16.992;2022-12-11T10:45:05;6;4;3
57049;PMS7003;42935;50.966;16.992;2022-12-11T10:48:11;5;5;2
57049;PMS7003;42935;50.966;16.992;2022-12-11T10:51:54;5;2;1
57049;PMS7003;42935;50.966;16.992;2022-12-11T10:55:05;4;3;1
57049;PMS7003;42935;50.966;16.992;2022-12-11T10:58:18;1;0;0
57049;PMS7003;42935;50.966;16.992;2022-12-11T11:02:02;2;0;0
57049;PMS7003;42935;50.966;16.992;2022-12-11T11:05:11;3;3;2
57049;PMS7003;42935;50.966;16.992;2022-12-11T11:08:20;15;2;1
57049;PMS7003;42935;50.966;16.992;2022-12-11T11:11:33;4;3;2
57049;PMS7003;42935;50.966;16.992;2022-12-11T11:14:39;0;0;0
57049;PMS7003;42935;50.966;16.992;2022-12-11T11:17:48;11;10;6
57049;PMS7003;42935;50.966;16.992;2022-12-11T11:21:02;3;2;0
57049;PMS7003;42935;50.966;16.992;2022-12-11T11:30:58;1;1;0
57049;PMS7003;42935;50.966;16.992;2022-12-11T11:34:18;4;3;2
57049;PMS7003;42935;50.966;16.992;2022-12-11T11:41:14;4;3;1
57049;PMS7003;42935;50.966;16.992;2022-12-11T11:44:23;2;2;0
57049;PMS7003;42935;50.966;16.992;2022-12-11T11:47:47;4;4;4
57049;PMS7003;42935;50.966;16.992;2022-12-11T11:50:57;5;3;3
57049;PMS7003;42935;50.966;16.992;2022-12-11T11:54:14;0;0;0
57049;PMS7003;42935;50.966;16.992;2022-12-11T11:57:44;2;0;0
57049;PMS7003;42935;50.966;16.992;2022-12-11T12:00:44;2;0;0
57049;PMS7003;42935;50.966;16.992;2022-12-11T12:03:50;3;2;1
57049;PMS7003;42935;50.966;16.992;2022-12-11T12:20:27;10;7;3
57049;PMS7003;42935;50.966;16.992;2022-12-11T12:27:17;8;6;3
57049;PMS7003;42935;50.966;16.992;2022-12-11T12:30:22;8;6;4
57049;PMS7003;42935;50.966;16.992;2022-12-11T12:33:32;2;1;1
57049;PMS7003;42935;50.966;16.992;2022-12-11T12:36:56;24;19;12
57049;PMS7003;42935;50.966;16.992;2022-12-11T12:40:12;8;4;3
57049;PMS7003;42935;50.966;16.992;2022-12-11T12:50:05;4;2;2
57049;PMS7003;42935;50.966;16.992;2022-12-11T12:53:19;15;10;7
57049;PMS7003;42935;50.966;16.992;2022-12-11T12:56:30;2;1;1
57049;PMS7003;42935;50.966;16.992;2022-12-11T12:59:37;3;3;1
57049;PMS7003;42935;50.966;16.992;2022-12-11T13:02:49;8;6;3
57049;PMS7003;42935;50.966;16.992;2022-12-11T13:09:15;4;1;0
57049;PMS7003;42935;50.966;16.992;2022-12-11T13:12:30;12;9;7
57049;PMS7003;42935;50.966;16.992;2022-12-11T13:15:45;7;6;3
57049;PMS7003;42935;50.966;16.992;2022-12-11T13:18:51;3;1;1
57049;PMS7003;42935;50.966;16.992;2022-12-11T13:25:23;0;0;0
57049;PMS7003;42935;50.966;16.992;2022-12-11T13:28:45;3;1;0
57049;PMS7003;42935;50.966;16.992;2022-12-11T13:31:55;1;1;0
57049;PMS7003;42935;50.966;16.992;2022-12-11T13:35:11;9;3;3
57049;PMS7003;42935;50.966;16.992;2022-12-11T13:38:22;3;1;1
57049;PMS7003;42935;50.966;16.992;2022-12-11T13:41:29;1;1;0
57049;PMS7003;42935;50.966;16.992;2022-12-11T13:44:45;4;3;2
57049;PMS7003;42935;50.966;16.992;2022-12-11T13:47:55;13;10;6
57049;PMS7003;42935;50.966;16.992;2022-12-11T13:51:03;14;9;6
57049;PMS7003;42935;50.966;16.992;2022-12-11T13:54:14;1;1;1
57049;PMS7003;42935;50.966;16.992;2022-12-11T13:57:27;8;6;3
57049;PMS7003;42935;50.966;16.992;2022-12-11T14:00:32;0;0;0
57049;PMS7003;42935;50.966;16.992;2022-12-11T14:06:59;0;0;0
57049;PMS7003;42935;50.966;16.992;2022-12-11T14:13:32;12;6;4
57049;PMS7003;42935;50.966;16.992;2022-12-11T14:16:55;10;8;5
57049;PMS7003;42935;50.966;16.992;2022-12-11T14:20:02;0;0;0
57049;PMS7003;42935;50.966;16.992;2022-12-11T14:23:16;14;8;5
57049;PMS7003;42935;50.966;16.992;2022-12-11T14:26:26;15;12;7
57049;PMS7003;42935;50.966;16.992;2022-12-11T14:29:35;10;7;5
57049;PMS7003;42935;50.966;16.992;2022-12-11T14:32:41;7;3;2
57049;PMS7003;42935;50.966;16.992;2022-12-11T14:35:54;17;11;8
57049;PMS7003;42935;50.966;16.992;2022-12-11T14:39:05;4;4;2
57049;PMS7003;42935;50.966;16.992;2022-12-11T14:42:23;8;3;1
57049;PMS7003;42935;50.966;16.992;2022-12-11T14:45:41;7;3;2
57049;PMS7003;42935;50.966;16.992;2022-12-11T14:48:58;18;12;6
57049;PMS7003;42935;50.966;16.992;2022-12-11T14:52:20;9;5;3
57049;PMS7003;42935;50.966;16.992;2022-12-11T14:55:32;11;7;3
57049;PMS7003;42935;50.966;16.992;2022-12-11T14:58:56;14;8;5
57049;PMS7003;42935;50.966;16.992;2022-12-11T15:02:38;7;6;3
57049;PMS7003;42935;50.966;16.992;2022-12-11T15:08:55;6;4;4
57049;PMS7003;42935;50.966;16.992;2022-12-11T15:12:23;0;0;0
57049;PMS7003;42935;50.966;16.992;2022-12-11T15:15:27;17;12;7
57049;PMS7003;42935;50.966;16.992;2022-12-11T15:18:41;7;6;5
57049;PMS7003;42935;50.966;16.992;2022-12-11T15:22:00;16;11;8
57049;PMS7003;42935;50.966;16.992;2022-12-11T15:28:57;39;32;23
57049;PMS7003;42935;50.966;16.992;2022-12-11T15:32:16;36;27;17
57049;PMS7003;42935;50.966;16.992;2022-12-11T15:35:25;4;2;1
57049;PMS7003;42935;50.966;16.992;2022-12-11T15:38:35;1;0;0
57049;PMS7003;42935;50.966;16.992;2022-12-11T15:41:52;16;11;6
57049;PMS7003;42935;50.966;16.992;2022-12-11T15:45:05;15;10;5
57049;PMS7003;42935;50.966;16.992;2022-12-11T15:48:20;19;8;6
57049;PMS7003;42935;50.966;16.992;2022-12-11T15:51:26;1;1;1
57049;PMS7003;42935;50.966;16.992;2022-12-11T15:54:36;19;12;5
57049;PMS7003;42935;50.966;16.992;2022-12-11T16:01:08;12;9;5
57049;PMS7003;42935;50.966;16.992;2022-12-11T16:04:17;13;10;8
57049;PMS7003;42935;50.966;16.992;2022-12-11T16:07:26;23;15;8
57049;PMS7003;42935;50.966;16.992;2022-12-11T16:10:46;12;10;8
57049;PMS7003;42935;50.966;16.992;2022-12-11T16:13:51;1;1;0
57049;PMS7003;42935;50.966;16.992;2022-12-11T16:16:56;10;9;6
57049;PMS7003;42935;50.966;16.992;2022-12-11T16:20:01;8;7;5
57049;PMS7003;42935;50.966;16.992;2022-12-11T16:23:04;1;1;0
57049;PMS7003;42935;50.966;16.992;2022-12-11T16:26:07;3;3;1
57049;PMS7003;42935;50.966;16.992;2022-12-11T16:29:13;7;5;3
57049;PMS7003;42935;50.966;16.992;2022-12-11T16:32:18;6;4;2
57049;PMS7003;42935;50.966;16.992;2022-12-11T16:35:23;3;3;3
57049;PMS7003;42935;50.966;16.992;2022-12-11T16:38:36;13;9;5
57049;PMS7003;42935;50.966;16.992;2022-12-11T16:41:41;8;4;3
57049;PMS7003;42935;50.966;16.992;2022-12-11T16:44:46;10;7;5
57049;PMS7003;42935;50.966;16.992;2022-12-11T16:47:55;7;6;4
57049;PMS7003;42935;50.966;16.992;2022-12-11T16:51:04;2;0;0
57049;PMS7003;42935;50.966;16.992;2022-12-11T16:54:10;12;7;4
57049;PMS7003;42935;50.966;16.992;2022-12-11T16:57:14;0;0;0
57049;PMS7003;42935;50.966;16.992;2022-12-11T17:00:32;9;5;4
57049;PMS7003;42935;50.966;16.992;2022-12-11T17:03:38;10;7;5
57049;PMS7003;42935;50.966;16.992;2022-12-11T17:06:48;3;2;1
57049;PMS7003;42935;50.966;16.992;2022-12-11T17:09:55;8;3;1
57049;PMS7003;42935;50.966;16.992;2022-12-11T17:13:02;10;6;4
57049;PMS7003;42935;50.966;16.992;2022-12-11T17:16:15;8;6;4
57049;PMS7003;42935;50.966;16.992;2022-12-11T17:19:22;1;1;1
57049;PMS7003;42935;50.966;16.992;2022-12-11T17:22:33;9;4;3
57049;PMS7003;42935;50.966;16.992;2022-12-11T17:25:49;7;4;2
57049;PMS7003;42935;50.966;16.992;2022-12-11T17:29:03;9;7;4
57049;PMS7003;42935;50.966;16.992;2022-12-11T17:32:07;5;4;3
57049;PMS7003;42935;50.966;16.992;2022-12-11T17:35:21;14;11;6
57049;PMS7003;42935;50.966;16.992;2022-12-11T17:38:28;7;4;3
57049;PMS7003;42935;50.966;16.992;2022-12-11T17:41:38;11;6;3
57049;PMS7003;42935;50.966;16.992;2022-12-11T17:44:44;5;4;3
57049;PMS7003;42935;50.966;16.992;2022-12-11T17:48:10;17;11;6
57049;PMS7003;42935;50.966;16.992;2022-12-11T17:51:16;3;2;1
57049;PMS7003;42935;50.966;16.992;2022-12-11T17:54:26;5;4;3
57049;PMS7003;42935;50.966;16.992;2022-12-11T17:57:35;16;9;4
57049;PMS7003;42935;50.966;16.992;2022-12-11T18:00:40;4;2;1
57049;PMS7003;42935;50.966;16.992;2022-12-11T18:03:46;4;2;1
57049;PMS7003;42935;50.966;16.992;2022-12-11T18:06:55;13;10;7
57049;PMS7003;42935;50.966;16.992;2022-12-11T18:10:04;5;3;2
57049;PMS7003;42935;50.966;16.992;2022-12-11T18:13:22;16;8;5
57049;PMS7003;42935;50.966;16.992;2022-12-11T18:16:35;21;13;8
57049;PMS7003;42935;50.966;16.992;2022-12-11T18:19:42;10;6;4
57049;PMS7003;42935;50.966;16.992;2022-12-11T18:22:57;12;10;6
57049;PMS7003;42935;50.966;16.992;2022-12-11T18:26:07;20;15;8
57049;PMS7003;42935;50.966;16.992;2022-12-11T18:29:22;12;9;5
57049;PMS7003;42935;50.966;16.992;2022-12-11T18:32:39;8;6;3
57049;PMS7003;42935;50.966;16.992;2022-12-11T18:36:20;20;13;8
57049;PMS7003;42935;50.966;16.992;2022-12-11T18:39:29;6;4;4
57049;PMS7003;42935;50.966;16.992;2022-12-11T18:42:47;21;15;7
57049;PMS7003;42935;50.966;16.992;2022-12-11T18:45:52;13;7;2
57049;PMS7003;42935;50.966;16.992;2022-12-11T18:49:00;7;5;3
57049;PMS7003;42935;50.966;16.992;2022-12-11T18:52:09;19;15;8
57049;PMS7003;42935;50.966;16.992;2022-12-11T18:55:16;6;4;2
57049;PMS7003;42935;50.966;16.992;2022-12-11T18:58:27;14;11;6
57049;PMS7003;42935;50.966;16.992;2022-12-11T19:01:36;9;6;3
57049;PMS7003;42935;50.966;16.992;2022-12-11T19:04:50;11;8;5
57049;PMS7003;42935;50.966;16.992;2022-12-11T19:07:55;6;3;2
57049;PMS7003;42935;50.966;16.992;2022-12-11T19:11:12;10;6;4
57049;PMS7003;42935;50.966;16.992;2022-12-11T19:14:18;8;3;2
57049;PMS7003;42935;50.966;16.992;2022-12-11T19:17:23;12;8;4
57049;PMS7003;42935;50.966;16.992;2022-12-11T19:20:29;5;2;1
57049;PMS7003;42935;50.966;16.992;2022-12-11T19:23:35;3;3;1
57049;PMS7003;42935;50.966;16.992;2022-12-11T19:27:00;13;9;5
57049;PMS7003;42935;50.966;16.992;2022-12-11T19:30:10;17;8;4
57049;PMS7003;42935;50.966;16.992;2022-12-11T19:33:16;9;6;2
57049;PMS7003;42935;50.966;16.992;2022-12-11T19:36:23;10;3;2
57049;PMS7003;42935;50.966;16.992;2022-12-11T19:39:39;12;8;4
57049;PMS7003;42935;50.966;16.992;2022-12-11T19:42:45;17;13;9
57049;PMS7003;42935;50.966;16.992;2022-12-11T19:45:59;12;9;5
57049;PMS7003;42935;50.966;16.992;2022-12-11T19:49:04;19;12;6
57049;PMS7003;42935;50.966;16.992;2022-12-11T19:52:16;12;8;4
57049;PMS7003;42935;50.966;16.992;2022-12-11T19:55:18;3;3;3
57049;PMS7003;42935;50.966;16.992;2022-12-11T19:58:25;5;3;2
57049;PMS7003;42935;50.966;16.992;2022-12-11T20:01:44;26;19;10
57049;PMS7003;42935;50.966;16.992;2022-12-11T20:05:23;1;1;0
57049;PMS7003;42935;50.966;16.992;2022-12-11T20:08:42;13;11;6
57049;PMS7003;42935;50.966;16.992;2022-12-11T20:11:53;5;4;3
57049;PMS7003;42935;50.966;16.992;2022-12-11T20:14:58;19;13;9
57049;PMS7003;42935;50.966;16.992;2022-12-11T20:18:08;10;7;4
57049;PMS7003;42935;50.966;16.992;2022-12-11T20:21:17;11;7;5
57049;PMS7003;42935;50.966;16.992;2022-12-11T20:24:27;6;4;2
57049;PMS7003;42935;50.966;16.992;2022-12-11T20:27:37;13;8;5
57049;PMS7003;42935;50.966;16.992;2022-12-11T20:30:50;18;14;9
57049;PMS7003;42935;50.966;16.992;2022-12-11T20:34:04;20;14;8
57049;PMS7003;42935;50.966;16.992;2022-12-11T20:37:17;10;7;4
57049;PMS7003;42935;50.966;16.992;2022-12-11T20:40:28;22;16;9
57049;PMS7003;42935;50.966;16.992;2022-12-11T20:43:38;15;11;7
57049;PMS7003;42935;50.966;16.992;2022-12-11T20:46:55;12;7;4
57049;PMS7003;42935;50.966;16.992;2022-12-11T20:50:02;19;10;6
57049;PMS7003;42935;50.966;16.992;2022-12-11T20:53:12;18;15;12
57049;PMS7003;42935;50.966;16.992;2022-12-11T20:56:27;12;7;4
57049;PMS7003;42935;50.966;16.992;2022-12-11T20:59:35;6;3;2
57049;PMS7003;42935;50.966;16.992;2022-12-11T21:02:48;13;5;2
57049;PMS7003;42935;50.966;16.992;2022-12-11T21:06:00;23;18;11
57049;PMS7003;42935;50.966;16.992;2022-12-11T21:09:12;14;11;7
57049;PMS7003;42935;50.966;16.992;2022-12-11T21:12:25;8;5;3
57049;PMS7003;42935;50.966;16.992;2022-12-11T21:15:40;29;20;10
57049;PMS7003;42935;50.966;16.992;2022-12-11T21:18:49;15;10;5
57049;PMS7003;42935;50.966;16.992;2022-12-11T21:21:54;7;3;2
57049;PMS7003;42935;50.966;16.992;2022-12-11T21:25:04;12;9;5
57049;PMS7003;42935;50.966;16.992;2022-12-11T21:28:20;12;7;5
57049;PMS7003;42935;50.966;16.992;2022-12-11T21:31:37;25;20;11
57049;PMS7003;42935;50.966;16.992;2022-12-11T21:34:43;2;0;0
57049;PMS7003;42935;50.966;16.992;2022-12-11T21:38:01;18;13;7
57049;PMS7003;42935;50.966;16.992;2022-12-11T21:41:46;25;19;10
57049;PMS7003;42935;50.966;16.992;2022-12-11T21:44:51;6;5;3
57049;PMS7003;42935;50.966;16.992;2022-12-11T21:48:04;9;6;3
57049;PMS7003;42935;50.966;16.992;2022-12-11T21:51:23;7;5;3
57049;PMS7003;42935;50.966;16.992;2022-12-11T21:54:34;2;2;1
57049;PMS7003;42935;50.966;16.992;2022-12-11T21:57:39;3;2;2
57049;PMS7003;42935;50.966;16.992;2022-12-11T22:00:48;2;1;0
57049;PMS7003;42935;50.966;16.992;2022-12-11T22:03:56;4;4;2
57049;PMS7003;42935;50.966;16.992;2022-12-11T22:07:00;10;5;3
57049;PMS7003;42935;50.966;16.992;2022-12-11T22:10:08;15;13;9
57049;PMS7003;42935;50.966;16.992;2022-12-11T22:13:12;5;4;3
57049;PMS7003;42935;50.966;16.992;2022-12-11T22:16:17;2;2;1
57049;PMS7003;42935;50.966;16.992;2022-12-11T22:19:28;5;3;3
57049;PMS7003;42935;50.966;16.992;2022-12-11T22:22:38;4;3;2
57049;PMS7003;42935;50.966;16.992;2022-12-11T22:25:44;7;7;3
57049;PMS7003;42935;50.966;16.992;2022-12-11T22:28:47;5;2;1
57049;PMS7003;42935;50.966;16.992;2022-12-11T22:32:02;20;11;4
57049;PMS7003;42935;50.966;16.992;2022-12-11T22:35:12;5;3;2
57049;PMS7003;42935;50.966;16.992;2022-12-11T22:38:16;2;1;1
57049;PMS7003;42935;50.966;16.992;2022-12-11T22:41:27;4;4;3
57049;PMS7003;42935;50.966;16.992;2022-12-11T22:44:42;7;6;4
57049;PMS7003;42935;50.966;16.992;2022-12-11T22:47:49;11;7;4
57049;PMS7003;42935;50.966;16.992;2022-12-11T22:51:05;13;8;4